Time;durP1;ratioP1;P1;durP2;ratioP2;P2;SDS_P1;SDS_P2;PMS_P1;PMS_P2;Temp;Humidity;BMP_temperature;BMP_pressure;BME280_temperature;BME280_humidity;BME280_pressure;Samples;Min_cycle;Max_cycle;Signal;HPM_P1;HPM_P2
2022/09/22 00:00:16;;;;;;;16.40;14.70;;;;;;;9.79;72.60;101118.02;108648;1273;22017;-84
2022/09/22 00:03:05;;;;;;;18.00;16.00;;;;;;;9.70;72.63;101119.06;108787;1273;22001;-84
2022/09/22 00:05:35;;;;;;;19.70;16.50;;;;;;;9.65;72.53;101116.23;108803;1273;21986;-83
2022/09/22 00:08:04;;;;;;;18.50;15.00;;;;;;;9.59;72.46;101115.66;108781;1270;22803;-83
2022/09/22 00:10:33;;;;;;;18.80;16.70;;;;;;;9.53;72.63;101111.45;108780;1271;21987;-83
2022/09/22 00:13:02;;;;;;;17.10;15.40;;;;;;;9.51;72.65;101110.80;108986;1270;22454;-83
2022/09/22 00:15:33;;;;;;;15.40;13.80;;;;;;;9.44;72.62;101110.25;108522;1277;22435;-83
2022/09/22 00:18:05;;;;;;;17.80;15.10;;;;;;;9.38;72.62;101104.45;108091;1282;22926;-83
2022/09/22 00:20:38;;;;;;;19.10;14.80;;;;;;;9.34;72.64;101102.65;108058;1282;23048;-83
2022/09/22 00:23:07;;;;;;;21.70;13.20;;;;;;;9.28;72.49;101099.98;108126;1282;23102;-83
2022/09/22 00:25:40;;;;;;;15.60;13.90;;;;;;;9.23;72.51;101107.02;107802;1288;22072;-83
2022/09/22 00:28:11;;;;;;;17.40;13.70;;;;;;;9.18;72.65;101103.83;107201;1292;22555;-83
2022/09/22 00:30:41;;;;;;;18.10;13.50;;;;;;;9.12;72.61;101101.86;107198;1291;22087;-81
2022/09/22 00:33:11;;;;;;;18.10;13.40;;;;;;;9.06;72.60;101102.15;107262;1289;24956;-83
2022/09/22 00:35:40;;;;;;;16.50;14.20;;;;;;;9.01;72.49;101104.86;107511;1284;23657;-83
2022/09/22 00:38:09;;;;;;;18.30;13.50;;;;;;;8.96;72.53;101103.73;107924;1286;23110;-83
2022/09/22 00:40:39;;;;;;;17.10;13.70;;;;;;;8.93;72.59;101106.75;107589;1289;21997;-83
2022/09/22 00:43:19;;;;;;;14.40;12.60;;;;;;;8.91;72.78;101104.36;107560;1282;22219;-82
2022/09/22 00:46:08;;;;;;;18.70;12.70;;;;;;;8.88;72.84;101103.89;108092;1276;22109;-83
2022/09/22 00:48:47;;;;;;;18.80;13.40;;;;;;;8.81;72.77;101106.27;108656;1276;22011;-82
2022/09/22 00:51:22;;;;;;;14.70;12.70;;;;;;;8.76;72.80;101106.02;108643;1276;22027;-83
2022/09/22 00:53:53;;;;;;;13.30;11.40;;;;;;;8.75;72.91;101109.85;108629;1277;23774;-82
2022/09/22 00:56:48;;;;;;;19.10;12.80;;;;;;;8.75;72.98;101114.02;108677;1276;23786;-82
2022/09/22 00:59:22;;;;;;;17.60;12.60;;;;;;;8.73;73.15;101113.73;108946;1270;24383;-84
2022/09/22 01:01:52;;;;;;;13.20;11.20;;;;;;;8.72;73.21;101110.45;108963;1273;22918;-83
2022/09/22 01:04:22;;;;;;;15.10;11.50;;;;;;;8.71;73.02;101104.90;108782;1270;23779;-83
2022/09/22 01:07:01;;;;;;;15.50;11.50;;;;;;;8.67;72.91;101101.86;109097;1271;21985;-84
2022/09/22 01:09:32;;;;;;;14.80;10.80;;;;;;;8.64;73.01;101107.61;108977;1273;23609;-84
2022/09/22 01:12:03;;;;;;;12.80;10.30;;;;;;;8.61;73.03;101110.96;108797;1273;21997;-84
2022/09/22 01:15:09;;;;;;;15.10;11.30;;;;;;;8.59;72.92;101113.45;109081;1273;24306;-83
2022/09/22 01:18:02;;;;;;;14.90;11.00;;;;;;;8.52;72.97;101114.58;108745;1276;22127;-83
2022/09/22 01:21:05;;;;;;;17.80;12.90;;;;;;;8.47;73.11;101111.39;108658;1276;22084;-82
2022/09/22 01:24:17;;;;;;;17.50;11.70;;;;;;;8.43;73.20;101110.92;108434;1276;22002;-84
2022/09/22 01:26:59;;;;;;;13.70;11.00;;;;;;;8.38;73.06;101110.30;108615;1276;21986;-84
2022/09/22 01:29:46;;;;;;;18.00;12.40;;;;;;;8.35;73.11;101107.56;108636;1279;22143;-83
2022/09/22 01:32:36;;;;;;;13.50;11.20;;;;;;;8.31;73.06;101107.27;108653;1276;21999;-84
2022/09/22 01:35:24;;;;;;;15.30;10.00;;;;;;;8.28;73.11;101105.42;108669;1270;23622;-83
2022/09/22 01:38:29;;;;;;;15.50;10.10;;;;;;;8.25;73.20;101103.04;108822;1273;22066;-83
2022/09/22 01:41:19;;;;;;;13.80;11.20;;;;;;;8.22;73.21;101104.13;108785;1273;22300;-83
2022/09/22 01:44:00;;;;;;;14.40;9.50;;;;;;;8.21;73.38;101098.95;108822;1273;23061;-84
2022/09/22 01:46:37;;;;;;;;;;;;;;;8.20;73.43;101102.25;108886;1270;23597;-83
2022/09/22 01:49:12;;;;;;;11.70;10.50;;;;;;;8.10;73.53;101104.32;109002;1273;22111;-84
2022/09/22 01:51:50;;;;;;;13.20;10.70;;;;;;;8.08;73.48;101106.23;108867;1270;23415;-83
2022/09/22 01:54:30;;;;;;;12.40;9.60;;;;;;;8.08;73.56;101103.83;108939;1273;22081;-82
2022/09/22 01:57:11;;;;;;;13.30;10.40;;;;;;;8.07;73.41;101102.46;108825;1271;22753;-84
2022/09/22 01:59:46;;;;;;;11.80;10.00;;;;;;;8.04;73.23;101099.04;108847;1272;21981;-84
2022/09/22 02:02:24;;;;;;;13.80;8.90;;;;;;;7.99;73.20;101105.35;108873;1273;23066;-82
2022/09/22 02:04:59;;;;;;;24.40;11.40;;;;;;;7.96;73.13;101107.83;108842;1270;23711;-87
2022/09/22 02:07:38;;;;;;;13.30;10.20;;;;;;;7.93;73.08;101106.65;108871;1273;23051;-84
2022/09/22 02:10:13;;;;;;;15.50;9.40;;;;;;;7.90;73.03;101105.83;108805;1273;22093;-83
2022/09/22 02:12:43;;;;;;;10.30;8.80;;;;;;;7.86;73.09;101106.06;108936;1273;22004;-84
2022/09/22 02:18:12;;;;;;;9.60;8.50;;;;;;;7.81;73.06;101109.59;108905;1273;22052;-83
2022/09/22 02:20:44;;;;;;;9.30;8.40;;;;;;;7.78;73.18;101110.33;108854;1272;23049;-83
2022/09/22 02:23:13;;;;;;;11.10;8.40;;;;;;;7.77;73.20;101108.80;108627;1276;23010;-83
2022/09/22 02:25:43;;;;;;;13.40;9.10;;;;;;;7.75;73.38;101112.29;108580;1276;23838;-82
2022/09/22 02:28:16;;;;;;;12.30;9.00;;;;;;;7.76;73.44;101112.10;108521;1276;23055;-82
2022/09/22 02:30:49;;;;;;;8.60;7.60;;;;;;;7.75;73.47;101111.06;108641;1276;22059;-82
2022/09/22 02:33:39;;;;;;;10.50;8.80;;;;;;;7.75;73.39;101115.58;108553;1277;21994;-83
2022/09/22 02:36:56;;;;;;;10.30;9.00;;;;;;;7.72;73.53;101112.50;108642;1278;22009;-83
2022/09/22 02:40:00;;;;;;;12.20;9.10;;;;;;;7.70;73.69;101112.70;108366;1281;22875;-83
2022/09/22 02:42:49;;;;;;;10.20;8.30;;;;;;;7.70;73.81;101113.91;108565;1277;22047;-83
2022/09/22 02:45:34;;;;;;;15.30;9.00;;;;;;;7.68;73.59;101112.55;108519;1277;22001;-83
2022/09/22 02:48:12;;;;;;;9.30;7.90;;;;;;;7.68;73.71;101111.52;108007;1285;23820;-82
2022/09/22 02:50:42;;;;;;;12.80;9.10;;;;;;;7.68;73.58;101111.86;108115;1283;25035;-84
2022/09/22 02:53:16;;;;;;;12.20;8.90;;;;;;;7.68;73.57;101117.23;107972;1285;23170;-84
2022/09/22 02:55:46;;;;;;;8.60;7.10;;;;;;;7.66;73.63;101115.52;108086;1283;24438;-83
2022/09/22 02:58:16;;;;;;;12.90;8.90;;;;;;;7.65;73.56;101119.01;108008;1286;22059;-83
2022/09/22 03:00:45;;;;;;;13.20;9.00;;;;;;;7.63;73.42;101120.59;107606;1290;22018;-83
2022/09/22 03:03:15;;;;;;;9.00;8.00;;;;;;;7.61;73.46;101119.40;107575;1287;23805;-83
2022/09/22 03:05:44;;;;;;;9.30;8.40;;;;;;;7.61;73.51;101118.37;107646;1283;22005;-84
2022/09/22 03:08:13;;;;;;;11.50;8.70;;;;;;;7.58;73.46;101115.97;108214;1283;22017;-83
2022/09/22 03:10:45;;;;;;;11.60;7.50;;;;;;;7.60;73.42;101119.23;107650;1287;22036;-83
2022/09/22 03:13:14;;;;;;;9.50;8.00;;;;;;;7.58;73.44;101115.45;107630;1287;22074;-83
2022/09/22 03:15:46;;;;;;;10.60;7.90;;;;;;;7.55;73.54;101110.98;107861;1282;23794;-83
2022/09/22 03:18:16;;;;;;;9.60;7.50;;;;;;;7.54;73.63;101108.94;108092;1279;22114;-83
2022/09/22 03:20:45;;;;;;;9.10;7.10;;;;;;;7.52;73.55;101108.45;108395;1279;22124;-84
2022/09/22 03:23:15;;;;;;;16.00;7.80;;;;;;;7.49;73.56;101109.69;108637;1276;22017;-82
2022/09/22 03:25:44;;;;;;;9.90;7.60;;;;;;;7.46;73.50;101107.80;108634;1279;21997;-83
2022/09/22 03:28:13;;;;;;;9.20;7.00;;;;;;;7.43;73.29;101105.42;108423;1273;22049;-83
2022/09/22 03:30:42;;;;;;;12.70;8.50;;;;;;;7.42;73.37;101102.67;108996;1272;22272;-82
2022/09/22 03:33:12;;;;;;;9.30;8.00;;;;;;;7.38;73.26;101104.98;108661;1277;23103;-83
2022/09/22 03:35:41;;;;;;;10.70;7.90;;;;;;;7.36;73.44;101106.73;108674;1278;22158;-83
2022/09/22 03:38:11;;;;;;;12.10;8.40;;;;;;;7.33;73.36;101106.60;108641;1276;23636;-85
2022/09/22 03:40:52;;;;;;;10.90;8.50;;;;;;;7.30;73.24;101108.20;108649;1276;22005;-82
2022/09/22 03:43:22;;;;;;;13.40;8.60;;;;;;;7.28;73.42;101107.36;108680;1276;22000;-82
2022/09/22 03:45:59;;;;;;;9.00;7.60;;;;;;;7.27;73.38;101103.02;108394;1281;21987;-84
2022/09/22 03:48:30;;;;;;;10.80;8.10;;;;;;;7.25;73.51;101106.69;108118;1282;22016;-83
2022/09/22 03:50:59;;;;;;;8.50;7.60;;;;;;;7.23;73.47;101106.89;108149;1279;23099;-84
2022/09/22 03:53:28;;;;;;;9.30;8.40;;;;;;;7.21;73.34;101108.48;108165;1285;23005;-83
2022/09/22 03:56:13;;;;;;;14.20;8.80;;;;;;;7.19;73.33;101109.70;108042;1286;23103;-83
2022/09/22 03:58:43;;;;;;;11.00;8.40;;;;;;;7.16;73.38;101114.06;107798;1289;23760;-81
2022/09/22 04:01:12;;;;;;;8.20;7.40;;;;;;;7.13;73.26;101110.98;107883;1288;22034;-81
2022/09/22 04:03:41;;;;;;;11.60;8.40;;;;;;;7.09;73.24;101114.32;107920;1282;22014;-80
2022/09/22 04:06:10;;;;;;;11.00;8.40;;;;;;;7.03;73.25;101116.29;108052;1282;23627;-81
2022/09/22 04:08:39;;;;;;;15.70;9.40;;;;;;;6.98;73.12;101117.73;108039;1283;23626;-80
2022/09/22 04:11:08;;;;;;;10.80;9.20;;;;;;;6.94;73.27;101120.02;107919;1283;22843;-80
2022/09/22 04:13:37;;;;;;;14.40;9.40;;;;;;;6.90;73.24;101113.84;108269;1279;22006;-82
2022/09/22 04:16:14;;;;;;;13.90;9.10;;;;;;;6.87;73.34;101117.33;108186;1279;22007;-82
2022/09/22 04:18:46;;;;;;;10.90;8.60;;;;;;;6.85;73.38;101117.70;108488;1277;23062;-83
2022/09/22 04:21:20;;;;;;;12.90;9.10;;;;;;;6.82;73.37;101116.16;108539;1277;22064;-82
2022/09/22 04:23:52;;;;;;;11.30;9.90;;;;;;;6.81;73.51;101113.07;108044;1280;22019;-83
2022/09/22 04:26:22;;;;;;;13.90;10.60;;;;;;;6.81;73.56;101116.35;108285;1285;22869;-83
2022/09/22 04:28:55;;;;;;;12.10;9.40;;;;;;;6.80;73.71;101119.11;108425;1279;23052;-82
2022/09/22 04:31:25;;;;;;;14.40;9.60;;;;;;;6.82;73.69;101120.67;108619;1277;23708;-83
2022/09/22 04:34:06;;;;;;;11.40;9.70;;;;;;;6.81;73.66;101125.34;108631;1278;22071;-82
2022/09/22 04:36:46;;;;;;;12.90;11.00;;;;;;;6.80;73.68;101123.45;108639;1277;21993;-84
2022/09/22 04:39:16;;;;;;;14.30;12.10;;;;;;;6.80;73.71;101120.69;108602;1276;22009;-83
2022/09/22 04:41:55;;;;;;;14.70;10.70;;;;;;;6.80;73.75;101115.49;108686;1273;23168;-82
2022/09/22 04:44:25;;;;;;;11.50;10.20;;;;;;;6.80;73.82;101113.42;108747;1272;23713;-82
2022/09/22 04:46:57;;;;;;;23.40;19.30;;;;;;;6.81;73.78;101119.98;109030;1270;21985;-82
2022/09/22 04:49:26;;;;;;;24.40;19.30;;;;;;;6.81;73.81;101120.67;108538;1277;22001;-82
2022/09/22 04:51:59;;;;;;;;;;;;;;;6.83;73.72;101118.58;108258;1283;21984;-82
2022/09/22 04:54:33;;;;;;;;;;;;;;;6.74;73.96;101120.05;108367;1282;22035;-83
2022/09/22 04:57:03;;;;;;;44.70;28.80;;;;;;;6.65;74.05;101119.27;108413;1283;24417;-79
2022/09/22 04:59:35;;;;;;;34.60;28.10;;;;;;;6.65;74.28;101118.75;108360;1282;22451;-82
2022/09/22 05:02:12;;;;;;;35.70;28.10;;;;;;;6.71;74.33;101122.84;108466;1283;21973;-83
2022/09/22 05:04:47;;;;;;;31.70;24.00;;;;;;;6.75;74.34;101126.10;108475;1283;21997;-84
2022/09/22 05:07:16;;;;;;;26.70;23.90;;;;;;;6.79;74.18;101129.35;108189;1280;22275;-82
2022/09/22 05:09:59;;;;;;;;;;;;;;;6.83;74.38;101127.58;108611;1270;23026;-84
2022/09/22 05:12:42;;;;;;;17.70;15.80;;;;;;;6.79;74.52;101131.95;109052;1271;22000;-83
2022/09/22 05:15:36;;;;;;;15.10;13.40;;;;;;;6.78;74.48;101127.97;109053;1273;21998;-80
2022/09/22 05:18:25;;;;;;;17.50;13.10;;;;;;;6.85;74.52;101129.29;108669;1270;22003;-80
2022/09/22 05:20:55;;;;;;;15.50;13.10;;;;;;;6.91;74.52;101129.91;108545;1276;22011;-81
2022/09/22 05:23:31;;;;;;;14.70;13.20;;;;;;;6.96;74.64;101130.73;108585;1279;22095;-80
2022/09/22 05:26:05;;;;;;;21.30;19.40;;;;;;;7.00;74.56;101130.33;108590;1279;23096;-81
2022/09/22 05:28:39;;;;;;;26.10;23.50;;;;;;;7.05;74.52;101129.24;108625;1276;21989;-82
2022/09/22 05:31:15;;;;;;;23.40;21.00;;;;;;;7.10;74.66;101126.95;108184;1285;22033;-82
2022/09/22 05:33:50;;;;;;;21.60;19.60;;;;;;;7.15;74.64;101130.86;108383;1282;22182;-81
2022/09/22 05:36:23;;;;;;;19.20;16.30;;;;;;;7.19;74.78;101131.52;108273;1283;23058;-81
2022/09/22 05:38:57;;;;;;;17.10;15.50;;;;;;;7.25;74.77;101130.75;108096;1283;23458;-81
2022/09/22 05:41:48;;;;;;;15.20;13.70;;;;;;;7.29;74.69;101128.80;108162;1283;22436;-81
2022/09/22 05:44:20;;;;;;;13.50;12.10;;;;;;;7.34;74.74;101128.77;108346;1283;22007;-81
2022/09/22 05:46:59;;;;;;;17.30;12.80;;;;;;;7.39;74.83;101129.55;108376;1279;23840;-82
2022/09/22 05:49:39;;;;;;;14.90;12.90;;;;;;;7.46;74.95;101131.04;108559;1276;22013;-81
2022/09/22 05:52:14;;;;;;;12.30;11.10;;;;;;;7.51;74.90;101134.42;108811;1276;22119;-81
2022/09/22 05:54:48;;;;;;;16.30;11.90;;;;;;;7.57;74.79;101134.52;108841;1276;22505;-81
2022/09/22 05:57:30;;;;;;;12.40;11.00;;;;;;;7.60;74.85;101128.09;108263;1282;22484;-82
2022/09/22 06:00:10;;;;;;;16.90;12.20;;;;;;;7.67;74.70;101135.78;108297;1282;22015;-81
2022/09/22 06:02:49;;;;;;;13.00;11.40;;;;;;;7.71;74.87;101138.50;108065;1282;22004;-83
2022/09/22 06:05:20;;;;;;;13.50;11.10;;;;;;;7.77;74.89;101135.31;108294;1282;23226;-82
2022/09/22 06:08:03;;;;;;;13.50;10.40;;;;;;;7.83;74.96;101130.36;108100;1283;22232;-81
2022/09/22 06:10:37;;;;;;;10.10;9.10;;;;;;;7.90;75.11;101133.55;108206;1282;22060;-80
2022/09/22 06:13:10;;;;;;;10.00;8.90;;;;;;;7.97;75.05;101130.85;108236;1280;22146;-81
2022/09/22 06:15:50;;;;;;;14.00;10.70;;;;;;;8.06;75.05;101130.55;108619;1274;21984;-86
2022/09/22 06:18:25;;;;;;;10.20;7.80;;;;;;;8.15;75.17;101129.54;108939;1273;22947;-82
2022/09/22 06:20:59;;;;;;;9.70;8.00;;;;;;;8.27;75.30;101130.06;108714;1273;22925;-81
2022/09/22 06:23:39;;;;;;;10.30;8.20;;;;;;;8.40;75.23;101132.82;109040;1273;23878;-85
2022/09/22 06:26:11;;;;;;;14.00;8.10;;;;;;;8.56;75.33;101135.67;108965;1270;21986;-81
2022/09/22 06:28:42;;;;;;;7.90;6.20;;;;;;;8.69;75.35;101133.55;108590;1279;22004;-82
2022/09/22 06:31:15;;;;;;;10.70;6.30;;;;;;;8.91;75.61;101142.20;108001;1283;22016;-86
2022/09/22 06:33:52;;;;;;;8.20;6.40;;;;;;;9.18;75.82;101145.16;108086;1283;22087;-84
2022/09/22 06:37:09;;;;;;;8.80;6.50;;;;;;;9.65;77.06;101146.64;108312;1282;23635;-85
2022/09/22 06:39:51;;;;;;;8.50;7.60;;;;;;;10.18;76.76;101147.71;107731;1288;22764;-86
2022/09/22 06:42:40;;;;;;;10.70;7.80;;;;;;;10.57;75.64;101144.55;108157;1289;22021;-88
2022/09/22 06:45:20;;;;;;;24.00;21.40;;;;;;;10.95;75.19;101146.86;107918;1288;22079;-86
2022/09/22 06:48:01;;;;;;;23.60;21.30;;;;;;;11.32;73.88;101149.36;108158;1283;22000;-85
2022/09/22 06:50:50;;;;;;;16.40;13.20;;;;;;;11.62;73.07;101148.14;108507;1277;23174;-87
2022/09/22 06:53:38;;;;;;;13.50;8.70;;;;;;;11.94;72.05;101145.13;108700;1276;22851;-85
2022/09/22 06:56:43;;;;;;;6.40;5.70;;;;;;;12.22;71.08;101144.42;108505;1276;22071;-85
2022/09/22 06:59:21;;;;;;;9.20;5.20;;;;;;;12.50;69.77;101143.52;108937;1270;23213;-86
2022/09/22 07:01:53;;;;;;;7.30;4.70;;;;;;;12.81;69.92;101145.98;108837;1270;23629;-86
2022/09/22 07:04:23;;;;;;;6.40;4.90;;;;;;;13.24;69.13;101147.61;108926;1270;23650;-86
2022/09/22 07:06:59;;;;;;;7.50;5.20;;;;;;;13.47;67.17;101149.08;108869;1273;23371;-87
2022/09/22 07:09:46;;;;;;;6.20;5.00;;;;;;;13.75;66.18;101150.30;108915;1270;22021;-87
2022/09/22 07:12:25;;;;;;;6.30;4.80;;;;;;;13.91;64.82;101143.90;108912;1273;22857;-87
2022/09/22 07:15:16;;;;;;;6.40;5.10;;;;;;;13.97;63.77;101146.48;108889;1270;23640;-88
2022/09/22 07:18:01;;;;;;;11.40;5.40;;;;;;;14.25;64.17;101146.73;108935;1273;21990;-86
2022/09/22 07:20:37;;;;;;;10.00;5.80;;;;;;;14.59;63.96;101149.77;108898;1273;21988;-87
2022/09/22 07:23:38;;;;;;;6.60;4.70;;;;;;;15.07;63.87;101152.61;108933;1270;23629;-88
2022/09/22 07:26:17;;;;;;;9.20;5.80;;;;;;;15.40;61.68;101149.61;108935;1273;22095;-86
2022/09/22 07:28:53;;;;;;;12.20;9.50;;;;;;;15.62;60.62;101150.36;108839;1277;23734;-86
2022/09/22 07:31:58;;;;;;;11.60;9.50;;;;;;;15.83;59.98;101153.77;108732;1276;23738;-84
2022/09/22 07:35:23;;;;;;;16.20;7.20;;;;;;;16.06;58.72;101153.44;109131;1276;22075;-89
2022/09/22 07:38:23;;;;;;;9.90;5.90;;;;;;;16.30;58.53;101156.29;109094;1276;22141;-87
2022/09/22 07:42:27;;;;;;;;;;;;;;;;;;;;;
2022/09/22 07:53:19;;;;;;;7.70;5.90;;;;;;;17.08;54.63;101149.73;110151;1272;21998;-89
2022/09/22 07:57:54;;;;;;;5.60;4.90;;;;;;;17.07;53.56;101142.98;110207;1273;22017;-89
2022/09/22 08:01:51;;;;;;;7.20;4.50;;;;;;;17.31;54.17;101143.41;109013;1267;23153;-88
2022/09/22 08:05:52;;;;;;;;;;;;;;;;;;;;;
2022/09/22 08:09:33;;;;;;;4.80;3.80;;;;;;;17.94;52.75;101144.11;110007;1272;22118;-87
2022/09/22 08:21:06;;;;;;;4.20;3.30;;;;;;;18.30;52.18;101148.55;109870;1273;22046;-88
2022/09/22 08:24:20;;;;;;;8.20;4.90;;;;;;;18.35;49.75;101150.05;109504;1277;22015;-88
2022/09/22 08:27:30;;;;;;;11.30;5.90;;;;;;;18.07;49.51;101148.27;109417;1276;22422;-88
2022/09/22 08:31:18;;;;;;;4.20;3.60;;;;;;;17.90;50.80;101149.92;109900;1273;22008;-88
2022/09/22 08:34:34;;;;;;;8.20;5.30;;;;;;;17.81;50.63;101151.46;110038;1272;22652;-88
2022/09/22 08:37:06;;;;;;;6.40;4.00;;;;;;;17.70;50.40;101150.11;109434;1273;21981;-88
2022/09/22 08:40:51;;;;;;;5.70;3.70;;;;;;;17.81;51.30;101153.23;109609;1272;22174;-88
2022/09/22 08:45:20;;;;;;;;;;;;;;;;;;;;;
2022/09/22 08:52:43;;;;;;;5.20;4.10;;;;;;;17.91;49.17;101149.31;109126;1282;22006;-89
2022/09/22 08:55:32;;;;;;;4.70;3.80;;;;;;;17.79;50.01;101150.48;109058;1283;22064;-87
2022/09/22 08:58:53;;;;;;;6.30;3.80;;;;;;;17.82;50.30;101149.66;109021;1282;22829;-86
2022/09/22 09:02:49;;;;;;;4.30;3.30;;;;;;;17.57;50.05;101151.04;109789;1270;22311;-88
2022/09/22 09:06:08;;;;;;;7.00;4.00;;;;;;;17.27;50.71;101152.30;109841;1270;21984;-89
2022/09/22 09:09:45;;;;;;;5.90;3.70;;;;;;;17.42;52.25;101157.13;109890;1270;21994;-87
2022/09/22 09:13:01;;;;;;;5.60;4.00;;;;;;;17.50;51.63;101154.90;109574;1273;22583;-87
2022/09/22 09:16:26;;;;;;;7.10;4.00;;;;;;;17.71;52.01;101149.71;109747;1270;21999;-88
2022/09/22 09:19:40;;;;;;;6.60;4.40;;;;;;;17.96;51.39;101144.51;109510;1273;22284;-88
2022/09/22 09:22:23;;;;;;;4.60;3.50;;;;;;;17.79;50.03;101144.17;109337;1276;21962;-88
2022/09/22 09:25:38;;;;;;;8.70;3.50;;;;;;;17.48;50.27;101142.89;109421;1276;22081;-87
2022/09/22 09:29:06;;;;;;;6.60;3.20;;;;;;;17.39;51.39;101140.18;109369;1276;22460;-88
2022/09/22 09:32:23;;;;;;;5.40;3.00;;;;;;;17.61;51.36;101143.07;109382;1276;22342;-88
2022/09/22 09:36:14;;;;;;;3.90;3.10;;;;;;;17.71;51.46;101143.23;109394;1276;22014;-87
2022/09/22 09:39:00;;;;;;;5.60;3.70;;;;;;;18.02;50.98;101137.08;109394;1276;22003;-87
2022/09/22 09:41:45;;;;;;;3.40;3.00;;;;;;;17.96;49.50;101134.27;109400;1276;22059;-87
2022/09/22 09:44:56;;;;;;;3.90;2.50;;;;;;;17.80;50.13;101135.50;109232;1276;22010;-86
2022/09/22 09:47:50;;;;;;;3.60;2.60;;;;;;;17.79;50.26;101135.20;109414;1276;21989;-88
2022/09/22 09:50:48;;;;;;;4.80;2.70;;;;;;;18.03;50.89;101133.00;109521;1276;21992;-89
2022/09/22 09:53:55;;;;;;;5.40;2.50;;;;;;;18.03;49.39;101129.31;109729;1270;22115;-88
2022/09/22 09:56:29;;;;;;;3.40;2.40;;;;;;;17.85;49.37;101123.28;109624;1273;23658;-88
2022/09/22 10:03:12;;;;;;;3.10;2.00;;;;;;;17.93;50.12;101122.32;109671;1270;22465;-88
2022/09/22 10:06:28;;;;;;;;;;;;;;;;;;;;;
2022/09/22 10:09:03;;;;;;;4.20;2.40;;;;;;;18.03;49.20;101127.19;109649;1273;22080;-88
2022/09/22 10:12:17;;;;;;;3.60;2.00;;;;;;;17.89;48.26;101125.89;109608;1271;22453;-89
2022/09/22 10:15:23;;;;;;;3.80;2.30;;;;;;;17.65;48.68;101123.48;109638;1273;21988;-88
2022/09/22 10:18:25;;;;;;;2.90;1.60;;;;;;;18.09;51.20;101126.82;109795;1272;22017;-89
2022/09/22 10:22:10;;;;;;;3.40;2.30;;;;;;;19.06;50.37;101122.56;105935;1273;5112911;-88
2022/09/22 10:25:41;;;;;;;3.80;2.70;;;;;;;19.74;47.74;101116.95;109658;1273;23751;-88
2022/09/22 10:28:40;;;;;;;3.00;1.80;;;;;;;20.08;46.74;101117.58;109651;1273;23841;-87
2022/09/22 10:31:46;;;;;;;3.20;1.80;;;;;;;20.48;45.79;101113.85;109690;1273;22031;-87
2022/09/22 10:34:58;;;;;;;5.30;2.80;;;;;;;21.10;45.52;101113.20;109582;1270;22005;-89
2022/09/22 10:38:44;;;;;;;;;;;;;;;;;;;;;
2022/09/22 10:42:33;;;;;;;2.80;1.30;;;;;;;22.27;41.76;101109.36;109658;1276;21961;-91
2022/09/22 10:49:32;;;;;;;1.70;1.00;;;;;;;22.54;38.58;101099.44;109865;1273;22013;-88
2022/09/22 10:53:36;;;;;;;1.80;1.10;;;;;;;21.54;38.02;101101.59;109218;1280;22001;-89
2022/09/22 10:57:09;;;;;;;2.60;1.30;;;;;;;20.65;38.98;101101.61;109211;1281;21974;-89
2022/09/22 11:00:46;;;;;;;1.90;1.10;;;;;;;19.71;40.66;101101.06;109366;1279;22013;-89
2022/09/22 11:04:37;;;;;;;5.10;1.90;;;;;;;19.18;42.38;101095.55;109292;1280;22033;-88
2022/09/22 11:12:18;;;;;;;2.20;1.30;;;;;;;18.97;43.59;101093.48;109314;1281;21996;-88
2022/09/22 11:15:07;;;;;;;1.80;1.30;;;;;;;18.88;43.51;101085.95;109265;1281;22123;-89
2022/09/22 11:18:07;;;;;;;7.80;2.80;;;;;;;18.80;43.59;101087.81;109319;1280;22082;-87
2022/09/22 11:21:25;;;;;;;;;;;;;;;;;;;;;
2022/09/22 11:25:11;;;;;;;3.00;1.60;;;;;;;18.43;42.73;101088.42;109549;1272;22087;-87
2022/09/22 11:28:46;;;;;;;5.10;1.10;;;;;;;18.01;42.54;101085.92;109631;1273;22729;-88
2022/09/22 11:32:10;;;;;;;3.60;1.30;;;;;;;17.62;42.76;101081.05;109543;1273;21955;-88
2022/09/22 11:36:20;;;;;;;5.30;1.30;;;;;;;17.33;43.43;101077.34;109708;1273;22004;-89
2022/09/22 11:39:43;;;;;;;2.10;1.10;;;;;;;17.29;44.17;101076.84;109281;1279;21960;-87
2022/09/22 11:42:58;;;;;;;2.30;1.10;;;;;;;17.33;44.68;101075.41;109257;1279;22013;-87
2022/09/22 11:46:56;;;;;;;2.50;1.30;;;;;;;17.45;45.06;101071.06;109232;1279;22229;-87
2022/09/22 11:50:22;;;;;;;1.80;1.10;;;;;;;17.54;45.26;101066.15;109171;1282;22426;-87
2022/09/22 11:53:36;;;;;;;2.10;1.20;;;;;;;17.67;45.06;101061.73;109207;1282;22061;-87
2022/09/22 11:56:28;;;;;;;2.30;1.40;;;;;;;17.75;44.84;101058.70;109109;1282;21958;-87
2022/09/22 11:59:56;;;;;;;2.00;1.50;;;;;;;17.79;44.63;101058.64;109277;1282;23747;-88
2022/09/22 12:06:47;;;;;;;2.20;1.40;;;;;;;17.87;44.31;101055.56;110757;1259;21987;-87
2022/09/22 12:10:17;;;;;;;4.90;2.30;;;;;;;17.78;43.70;101055.33;109714;1273;21995;-87
2022/09/22 12:12:59;;;;;;;6.50;4.20;;;;;;;17.64;43.54;101061.77;109709;1270;21989;-87
2022/09/22 12:15:58;;;;;;;4.40;2.10;;;;;;;17.55;43.54;101059.79;109597;1270;21958;-86
2022/09/22 12:19:35;;;;;;;6.90;1.70;;;;;;;17.38;43.55;101061.42;109833;1269;22151;-88
2022/09/22 12:22:33;;;;;;;3.90;1.80;;;;;;;17.19;43.73;101060.02;109981;1268;21994;-88
2022/09/22 12:26:15;;;;;;;3.80;1.20;;;;;;;17.00;44.28;101061.90;109857;1273;21988;-88
2022/09/22 12:29:54;;;;;;;2.70;1.20;;;;;;;16.88;44.64;101062.71;109705;1270;22009;-88
2022/09/22 12:36:30;;;;;;;4.30;1.20;;;;;;;16.72;45.23;101054.91;110738;1260;22002;-88
2022/09/22 12:40:11;;;;;;;;;;;;;;;;;;;;;
2022/09/22 12:44:12;;;;;;;4.20;2.60;;;;;;;16.48;45.48;101051.03;109904;1269;23776;-86
2022/09/22 12:48:18;;;;;;;5.60;3.60;;;;;;;16.42;45.33;101048.52;109990;1273;22016;-86
2022/09/22 12:51:32;;;;;;;6.50;3.70;;;;;;;16.30;45.36;101048.61;109941;1270;22388;-88
2022/09/22 12:54:38;;;;;;;7.90;4.90;;;;;;;16.20;45.42;101051.23;109950;1270;22030;-88
2022/09/22 12:57:51;;;;;;;;;;;;;;;;;;;;;
2022/09/22 13:01:16;;;;;;;4.20;3.40;;;;;;;16.15;46.27;101050.61;109920;1270;23837;-87
2022/09/22 13:04:31;;;;;;;4.40;3.40;;;;;;;16.09;46.53;101051.08;109843;1270;21994;-87
2022/09/22 13:08:09;;;;;;;;;;;;;;;;;;;;;
2022/09/22 13:12:22;;;;;;;4.80;3.30;;;;;;;16.00;46.94;101063.27;110005;1270;22156;-88
2022/09/22 13:15:40;;;;;;;5.00;3.50;;;;;;;15.94;47.24;101059.88;109906;1270;21951;-86
2022/09/22 13:18:51;;;;;;;4.40;3.00;;;;;;;15.96;47.72;101056.45;109788;1270;22988;-88
2022/09/22 13:21:55;;;;;;;7.00;4.40;;;;;;;16.03;48.04;101055.08;109764;1270;21997;-88
2022/09/22 13:24:53;;;;;;;8.50;4.90;;;;;;;16.10;48.00;101056.12;109823;1269;21998;-89
2022/09/22 13:27:32;;;;;;;8.00;5.70;;;;;;;16.18;47.86;101054.13;109648;1270;22779;-88
2022/09/22 13:30:21;;;;;;;7.20;4.00;;;;;;;16.28;47.79;101053.13;109467;1270;22262;-88
2022/09/22 13:33:47;;;;;;;4.70;3.30;;;;;;;16.36;47.69;101051.28;109441;1270;22043;-86
2022/09/22 13:36:28;;;;;;;3.60;1.80;;;;;;;16.43;47.61;101052.35;109836;1270;22463;-86
2022/09/22 13:39:20;;;;;;;4.20;2.00;;;;;;;16.46;47.30;101051.14;109488;1273;22453;-87
2022/09/22 13:42:30;;;;;;;3.50;2.30;;;;;;;16.42;46.86;101050.48;109871;1270;21954;-88
2022/09/22 13:45:17;;;;;;;7.30;2.30;;;;;;;16.32;46.64;101052.36;109552;1273;21959;-87
2022/09/22 13:48:36;;;;;;;5.90;1.80;;;;;;;16.29;47.00;101052.71;109499;1273;22019;-88
2022/09/22 13:51:36;;;;;;;4.70;2.60;;;;;;;16.24;46.91;101049.96;109781;1273;22110;-88
2022/09/22 13:54:14;;;;;;;4.40;2.70;;;;;;;16.26;47.02;101045.69;109425;1273;22055;-87
2022/09/22 13:56:58;;;;;;;9.50;3.10;;;;;;;16.29;47.24;101045.69;109434;1273;24402;-88
2022/09/22 13:59:44;;;;;;;3.20;1.50;;;;;;;16.34;47.31;101046.69;109533;1273;21952;-86
2022/09/22 14:02:19;;;;;;;3.90;1.60;;;;;;;16.37;47.36;101042.86;109079;1273;22048;-83
2022/09/22 14:04:56;;;;;;;5.10;3.00;;;;;;;16.36;47.31;101041.12;108446;1279;22039;-82
2022/09/22 14:07:31;;;;;;;6.30;2.90;;;;;;;16.36;47.37;101041.47;108451;1279;23650;-82